createdAt,value
2023-04-15T00:01:59.260Z,99.90
2023-04-15T00:04:30.972Z,99.90
2023-04-15T00:07:02.352Z,99.90
2023-04-15T00:09:31.148Z,99.90
2023-04-15T00:12:03.597Z,99.90
2023-04-15T00:14:30.664Z,99.90
2023-04-15T00:16:58.557Z,99.90
2023-04-15T00:19:27.504Z,99.90
2023-04-15T00:21:54.182Z,99.90
2023-04-15T00:24:22.534Z,99.90
2023-04-15T00:29:23.851Z,99.90
2023-04-15T00:31:50.561Z,99.90
2023-04-15T00:34:22.592Z,99.90
2023-04-15T00:36:51.792Z,99.90
2023-04-15T00:39:22.350Z,99.90
2023-04-15T00:41:49.165Z,99.90
2023-04-15T00:44:18.190Z,99.90
2023-04-15T00:46:50.950Z,99.90
2023-04-15T00:49:20.745Z,99.90
2023-04-15T00:51:53.095Z,99.90
2023-04-15T00:54:23.529Z,99.90
2023-04-15T00:56:50.185Z,99.90
2023-04-15T00:59:17.874Z,99.90
2023-04-15T01:01:47.040Z,99.90
2023-04-15T01:04:15.577Z,99.90
2023-04-15T01:06:45.153Z,99.90
2023-04-15T01:09:11.808Z,99.90
2023-04-15T01:11:40.645Z,99.90
2023-04-15T01:14:12.560Z,99.90
2023-04-15T01:19:33.039Z,99.90
2023-04-15T01:22:00.580Z,99.90
2023-04-15T01:24:35.378Z,99.90
2023-04-15T01:27:03.807Z,99.90
2023-04-15T01:29:32.290Z,99.90
2023-04-15T01:32:06.541Z,99.90
2023-04-15T01:34:35.892Z,99.90
2023-04-15T01:37:03.680Z,99.90
2023-04-15T01:39:30.453Z,99.90
2023-04-15T01:41:59.317Z,99.90
2023-04-15T01:44:30.898Z,99.90
2023-04-15T01:46:58.766Z,99.90
2023-04-15T01:49:27.668Z,99.90
2023-04-15T01:51:54.521Z,99.90
2023-04-15T01:54:21.248Z,99.90
2023-04-15T01:56:47.837Z,99.90
2023-04-15T01:59:18.088Z,99.90
2023-04-15T02:01:45.878Z,99.90
2023-04-15T02:04:18.122Z,99.90
2023-04-15T02:06:48.003Z,99.90
2023-04-15T02:09:17.633Z,99.90
2023-04-15T02:11:55.724Z,99.90
2023-04-15T02:14:24.433Z,99.90
2023-04-15T02:16:54.873Z,99.90
2023-04-15T02:19:24.495Z,99.90
2023-04-15T02:21:53.312Z,99.90
2023-04-15T02:24:23.358Z,99.90
2023-04-15T02:26:50.794Z,99.90
2023-04-15T02:29:17.506Z,99.90
2023-04-15T02:31:44.849Z,99.90
2023-04-15T02:34:14.680Z,99.90
2023-04-15T02:36:47.839Z,99.90
2023-04-15T02:39:18.063Z,99.90
2023-04-15T02:41:51.235Z,99.90
2023-04-15T02:44:21.327Z,99.90
2023-04-15T02:46:51.861Z,99.90
2023-04-15T02:49:24.483Z,99.90
2023-04-15T02:52:16.392Z,99.90
2023-04-15T02:54:51.252Z,99.90
2023-04-15T02:57:23.014Z,99.90
2023-04-15T02:59:52.823Z,99.90
2023-04-15T03:02:21.830Z,99.90
2023-04-15T03:04:48.646Z,99.90
2023-04-15T03:07:17.911Z,99.90
2023-04-15T03:09:47.058Z,99.90
2023-04-15T03:12:19.450Z,99.90
2023-04-15T03:14:48.198Z,99.90
2023-04-15T03:17:19.491Z,99.90
2023-04-15T03:19:46.771Z,99.90
2023-04-15T03:22:13.397Z,99.90
2023-04-15T03:24:45.878Z,99.90
2023-04-15T03:30:05.745Z,99.90
2023-04-15T03:32:34.975Z,99.90
2023-04-15T03:35:13.537Z,99.90
2023-04-15T03:37:50.153Z,99.90
2023-04-15T03:40:16.781Z,99.90
2023-04-15T03:42:45.888Z,99.90
2023-04-15T03:45:42.120Z,99.90
2023-04-15T03:48:18.205Z,99.90
2023-04-15T03:50:47.795Z,99.90
2023-04-15T03:53:15.308Z,99.90
2023-04-15T03:55:42.306Z,99.90
2023-04-15T03:58:12.110Z,99.90
2023-04-15T04:00:40.713Z,99.90
2023-04-15T04:03:09.924Z,99.90
2023-04-15T04:05:40.730Z,99.90
2023-04-15T04:08:07.577Z,99.90
2023-04-15T04:10:34.374Z,99.90
2023-04-15T04:13:03.566Z,99.90
2023-04-15T04:15:34.958Z,99.90
2023-04-15T04:18:06.880Z,99.90
2023-04-15T04:20:34.870Z,99.90
2023-04-15T04:23:02.907Z,99.90
2023-04-15T04:25:29.848Z,99.90
2023-04-15T04:27:59.981Z,99.90
2023-04-15T04:30:29.624Z,99.90
2023-04-15T04:32:58.609Z,99.90
2023-04-15T04:35:25.668Z,99.90
2023-04-15T04:37:55.853Z,99.90
2023-04-15T04:43:39.961Z,99.90
2023-04-15T04:46:07.888Z,99.90
2023-04-15T04:48:36.228Z,99.90
2023-04-15T04:51:08.757Z,99.90
2023-04-15T04:53:42.902Z,99.90
2023-04-15T04:56:12.051Z,99.90
2023-04-15T04:58:39.121Z,99.90
2023-04-15T05:01:07.192Z,99.90
2023-04-15T05:03:37.985Z,99.90
2023-04-15T05:06:08.133Z,99.90
2023-04-15T05:08:39.897Z,99.90
2023-04-15T05:11:33.265Z,99.90
2023-04-15T05:14:02.601Z,99.90
2023-04-15T05:16:29.287Z,99.90
2023-04-15T05:18:58.607Z,99.90
2023-04-15T05:21:25.453Z,99.90
2023-04-15T05:23:57.086Z,99.90
2023-04-15T05:26:27.580Z,99.90
2023-04-15T05:29:00.512Z,99.90
2023-04-15T05:31:27.650Z,99.90
2023-04-15T05:33:54.499Z,99.90
2023-04-15T05:36:21.423Z,99.90
2023-04-15T05:38:54.029Z,99.90
2023-04-15T05:41:20.855Z,99.90
2023-04-15T05:43:47.464Z,99.90
2023-04-15T05:46:18.483Z,99.90
2023-04-15T05:48:47.256Z,99.90
2023-04-15T05:51:16.277Z,99.90
2023-04-15T05:53:47.876Z,99.90
2023-04-15T05:56:19.666Z,99.90
2023-04-15T05:58:46.456Z,99.90
2023-04-15T06:01:14.748Z,99.90
2023-04-15T06:03:42.042Z,99.90
2023-04-15T06:06:11.151Z,99.90
2023-04-15T06:08:39.848Z,99.90
2023-04-15T06:11:06.641Z,99.90
2023-04-15T06:13:37.747Z,99.90
2023-04-15T06:16:04.733Z,99.90
2023-04-15T06:18:34.003Z,99.90
2023-04-15T06:21:00.874Z,99.90
2023-04-15T06:23:28.048Z,99.90
2023-04-15T06:25:56.068Z,99.90
2023-04-15T06:28:25.344Z,99.90
2023-04-15T06:30:55.014Z,99.90
2023-04-15T06:33:23.665Z,99.90
2023-04-15T06:35:50.544Z,99.90
2023-04-15T06:38:17.169Z,99.90
2023-04-15T06:40:43.987Z,99.90
2023-04-15T06:43:12.151Z,99.90
2023-04-15T06:45:44.092Z,99.90
2023-04-15T06:48:11.032Z,99.90
2023-04-15T06:50:39.960Z,99.90
2023-04-15T06:53:08.454Z,99.90
2023-04-15T06:55:35.276Z,99.90
2023-04-15T06:58:03.232Z,99.90
2023-04-15T07:00:30.016Z,99.90
2023-04-15T07:03:00.199Z,99.90
2023-04-15T07:05:28.259Z,99.90
2023-04-15T07:07:57.583Z,99.90
2023-04-15T07:10:25.752Z,99.90
2023-04-15T07:12:54.952Z,99.90
2023-04-15T07:15:22.719Z,99.90
2023-04-15T07:17:55.538Z,99.90
2023-04-15T07:20:26.582Z,99.90
2023-04-15T07:22:55.609Z,99.90
2023-04-15T07:25:22.473Z,99.90
2023-04-15T07:27:51.850Z,99.90
2023-04-15T07:33:17.154Z,99.90
2023-04-15T07:35:44.634Z,99.90
2023-04-15T07:38:16.225Z,99.90
2023-04-15T07:40:49.112Z,99.90
2023-04-15T07:43:17.268Z,99.90
2023-04-15T07:45:48.298Z,99.90
2023-04-15T07:48:16.105Z,99.90
2023-04-15T07:51:10.318Z,99.90
2023-04-15T07:53:37.421Z,99.90
2023-04-15T07:56:08.257Z,99.90
2023-04-15T07:58:34.957Z,99.90
2023-04-15T08:01:01.669Z,99.90
2023-04-15T08:03:33.768Z,99.90
2023-04-15T08:06:01.025Z,99.90
2023-04-15T08:08:31.378Z,99.90
2023-04-15T08:11:02.029Z,99.90
2023-04-15T08:13:28.861Z,99.90
2023-04-15T08:16:18.564Z,99.90
2023-04-15T08:18:50.101Z,99.90
2023-04-15T08:21:18.588Z,99.90
2023-04-15T08:23:51.231Z,99.90
2023-04-15T08:26:25.629Z,99.90
2023-04-15T08:28:53.260Z,99.90
2023-04-15T08:31:22.873Z,99.90
2023-04-15T08:33:54.169Z,99.90
2023-04-15T08:36:20.906Z,99.90
2023-04-15T08:39:13.482Z,99.90
2023-04-15T08:41:55.735Z,99.90
2023-04-15T08:44:25.102Z,99.90
2023-04-15T08:47:03.016Z,99.90
2023-04-15T08:49:31.216Z,99.90
2023-04-15T08:52:02.075Z,99.90
2023-04-15T08:54:30.385Z,99.90
2023-04-15T08:56:58.868Z,99.90
2023-04-15T08:59:30.896Z,99.90
2023-04-15T09:01:58.095Z,99.90
2023-04-15T09:04:30.833Z,99.90
2023-04-15T09:06:57.756Z,99.90
2023-04-15T09:09:24.536Z,99.90
2023-04-15T09:11:51.206Z,99.90
2023-04-15T09:14:19.806Z,99.90
2023-04-15T09:17:03.758Z,99.90
2023-04-15T09:19:32.724Z,99.90
2023-04-15T09:22:00.503Z,99.90
2023-04-15T09:24:40.141Z,99.90
2023-04-15T09:27:09.571Z,99.90
2023-04-15T09:29:38.665Z,99.90
2023-04-15T09:32:23.201Z,99.90
2023-04-15T09:34:49.998Z,99.90
2023-04-15T09:37:31.571Z,99.90
2023-04-15T09:39:59.948Z,99.90
2023-04-15T09:42:29.205Z,99.90
2023-04-15T09:45:08.428Z,99.90
2023-04-15T09:47:36.654Z,99.90
2023-04-15T09:50:03.748Z,99.90
2023-04-15T09:52:33.023Z,99.90
2023-04-15T09:55:06.159Z,99.90
2023-04-15T09:57:37.534Z,99.90
2023-04-15T10:00:06.018Z,99.90
2023-04-15T10:02:37.062Z,99.90
2023-04-15T10:05:04.059Z,99.90
2023-04-15T10:07:37.387Z,99.90
2023-04-15T10:10:07.452Z,99.90
2023-04-15T10:12:36.841Z,99.40
2023-04-15T10:15:06.409Z,98.70
2023-04-15T10:17:36.523Z,99.70
2023-04-15T10:20:08.070Z,99.90
2023-04-15T10:22:35.597Z,99.70
2023-04-15T10:25:05.742Z,98.50
2023-04-15T10:27:36.638Z,97.40
2023-04-15T10:30:10.777Z,97.70
2023-04-15T10:32:38.365Z,96.60
2023-04-15T10:35:06.431Z,96.80
2023-04-15T10:37:39.657Z,97.30
2023-04-15T10:40:31.936Z,95.30
2023-04-15T10:45:56.852Z,95.40
2023-04-15T10:48:27.070Z,96.40
2023-04-15T10:50:59.983Z,94.30
2023-04-15T10:56:41.315Z,95.20
2023-04-15T10:59:08.624Z,93.80
2023-04-15T11:01:59.593Z,93.90
2023-04-15T11:05:03.566Z,94.20
2023-04-15T11:07:58.485Z,91.10
2023-04-15T11:10:25.398Z,91.30
2023-04-15T11:13:01.488Z,91.90
2023-04-15T11:18:29.985Z,90.00
2023-04-15T11:21:05.959Z,90.90
2023-04-15T11:23:43.382Z,91.70
2023-04-15T11:26:14.204Z,91.60
2023-04-15T11:28:44.039Z,90.00
2023-04-15T11:31:12.195Z,88.60
2023-04-15T11:34:20.252Z,90.70
2023-04-15T11:36:50.042Z,90.00
2023-04-15T11:39:16.794Z,87.80
2023-04-15T11:41:43.622Z,89.40
2023-04-15T11:44:17.432Z,87.60
2023-04-15T11:46:46.674Z,85.40
2023-04-15T11:49:30.604Z,86.20
2023-04-15T11:51:57.375Z,84.20
2023-04-15T11:54:24.616Z,80.20
2023-04-15T11:56:56.712Z,79.40
2023-04-15T11:59:26.317Z,79.40
2023-04-15T12:01:55.412Z,80.20
2023-04-15T12:04:27.759Z,80.10
2023-04-15T12:07:03.788Z,79.70
2023-04-15T12:09:42.253Z,79.10
2023-04-15T12:12:11.406Z,72.70
2023-04-15T12:14:39.548Z,71.10
2023-04-15T12:17:06.428Z,70.50
2023-04-15T12:19:37.580Z,72.60
2023-04-15T12:22:16.607Z,74.00
2023-04-15T12:24:47.194Z,74.20
2023-04-15T12:27:16.871Z,71.20
2023-04-15T12:29:44.877Z,71.10
2023-04-15T12:32:21.210Z,68.80
2023-04-15T12:34:52.529Z,68.20
2023-04-15T12:37:22.852Z,64.80
2023-04-15T12:39:53.700Z,67.50
2023-04-15T12:42:24.463Z,65.00
2023-04-15T12:44:51.588Z,65.10
2023-04-15T12:47:19.197Z,62.60
2023-04-15T12:49:49.533Z,61.30
2023-04-15T12:55:25.112Z,61.90
2023-04-15T12:57:53.639Z,64.70
2023-04-15T13:00:20.525Z,59.90
2023-04-15T13:02:51.853Z,62.80
2023-04-15T13:05:25.861Z,61.30
2023-04-15T13:07:52.465Z,59.50
2023-04-15T13:10:25.333Z,60.80
2023-04-15T13:12:55.893Z,60.40
2023-04-15T13:15:47.968Z,62.40
2023-04-15T13:18:16.300Z,64.10
2023-04-15T13:20:42.929Z,65.60
2023-04-15T13:23:09.865Z,66.60
2023-04-15T13:25:40.623Z,66.00
2023-04-15T13:28:07.221Z,68.70
2023-04-15T13:30:40.630Z,69.50
2023-04-15T13:33:37.002Z,68.80
2023-04-15T13:36:14.758Z,70.10
2023-04-15T13:38:41.375Z,70.50
2023-04-15T13:41:11.160Z,70.80
2023-04-15T13:44:05.159Z,72.60
2023-04-15T13:46:32.478Z,73.80
2023-04-15T13:49:00.217Z,74.40
2023-04-15T13:51:27.435Z,75.50
2023-04-15T13:54:00.291Z,75.50
2023-04-15T13:56:27.071Z,77.50
2023-04-15T13:58:58.208Z,75.30
2023-04-15T14:01:27.832Z,76.80
2023-04-15T14:03:58.966Z,77.10
2023-04-15T14:06:30.892Z,78.50
2023-04-15T14:09:01.552Z,79.80
2023-04-15T14:11:31.110Z,78.30
2023-04-15T14:14:00.884Z,79.10
2023-04-15T14:16:33.792Z,78.40
2023-04-15T14:19:02.139Z,78.40
2023-04-15T14:21:31.385Z,77.80
2023-04-15T14:23:58.290Z,79.30
2023-04-15T14:26:26.350Z,80.00
2023-04-15T14:28:53.373Z,79.60
2023-04-15T14:31:22.746Z,79.70
2023-04-15T14:33:54.158Z,80.30
2023-04-15T14:36:23.366Z,81.30
2023-04-15T14:39:17.333Z,80.70
2023-04-15T14:41:46.833Z,80.20
2023-04-15T14:44:13.470Z,81.60
2023-04-15T14:46:40.362Z,79.50
2023-04-15T14:49:07.516Z,79.10
2023-04-15T14:51:34.301Z,79.50
2023-04-15T14:54:04.036Z,80.50
2023-04-15T14:56:31.417Z,80.40
2023-04-15T14:59:04.465Z,78.80
2023-04-15T15:01:34.512Z,79.70
2023-04-15T15:04:01.430Z,79.60
2023-04-15T15:06:28.371Z,79.10
2023-04-15T15:08:55.208Z,78.50
2023-04-15T15:11:23.542Z,79.30
2023-04-15T15:13:53.975Z,76.70
2023-04-15T15:16:24.162Z,77.40
2023-04-15T15:18:50.856Z,77.60
2023-04-15T15:21:17.972Z,78.60
2023-04-15T15:23:45.212Z,79.30
2023-04-15T15:26:41.442Z,78.80
2023-04-15T15:29:11.059Z,79.00
2023-04-15T15:31:40.239Z,79.20
2023-04-15T15:34:12.251Z,80.10
2023-04-15T15:36:43.479Z,80.60
2023-04-15T15:39:11.952Z,81.10
2023-04-15T15:41:42.028Z,82.40
2023-04-15T15:44:39.852Z,83.80
2023-04-15T15:47:10.055Z,83.50
2023-04-15T15:49:36.915Z,87.30
2023-04-15T15:52:13.875Z,90.00
2023-04-15T15:54:40.717Z,90.20
2023-04-15T15:57:07.745Z,90.90
2023-04-15T15:59:40.447Z,92.20
2023-04-15T16:02:13.652Z,92.80
2023-04-15T16:04:43.130Z,93.60
2023-04-15T16:07:14.679Z,94.60
2023-04-15T16:09:42.066Z,95.70
2023-04-15T16:12:08.918Z,97.40
2023-04-15T16:14:35.730Z,99.50
2023-04-15T16:17:02.594Z,99.90
2023-04-15T16:19:29.649Z,99.90
2023-04-15T16:21:56.617Z,99.90
2023-04-15T16:24:23.372Z,99.90
2023-04-15T16:26:50.543Z,99.90
2023-04-15T16:29:17.122Z,99.90
2023-04-15T16:31:46.964Z,99.90
2023-04-15T16:34:16.756Z,99.90
2023-04-15T16:36:44.645Z,99.90
2023-04-15T16:39:12.486Z,99.90
2023-04-15T16:41:42.165Z,99.90
2023-04-15T16:44:34.629Z,99.90
2023-04-15T16:47:03.851Z,99.90
2023-04-15T16:49:34.765Z,99.90
2023-04-15T16:52:01.817Z,99.90
2023-04-15T16:54:32.762Z,99.90
2023-04-15T16:57:01.941Z,99.90
2023-04-15T16:59:30.866Z,99.90
2023-04-15T17:01:58.568Z,99.90
2023-04-15T17:04:26.601Z,99.90
2023-04-15T17:06:53.290Z,99.90
2023-04-15T17:09:22.661Z,99.90
2023-04-15T17:11:55.265Z,99.90
2023-04-15T17:14:26.480Z,99.90
2023-04-15T17:16:55.118Z,99.90
2023-04-15T17:19:24.056Z,99.90
2023-04-15T17:21:52.415Z,99.90
2023-04-15T17:24:20.532Z,99.90
2023-04-15T17:26:47.172Z,99.90
2023-04-15T17:29:20.042Z,99.90
2023-04-15T17:31:48.118Z,99.90
2023-04-15T17:34:16.603Z,99.90
2023-04-15T17:36:45.531Z,99.90
2023-04-15T17:42:10.524Z,99.90
2023-04-15T17:44:37.149Z,99.90
2023-04-15T17:47:07.225Z,99.90
2023-04-15T17:49:36.961Z,99.90
2023-04-15T17:52:03.882Z,99.90
2023-04-15T17:54:30.509Z,99.90
2023-04-15T17:56:58.524Z,99.90
2023-04-15T17:59:25.574Z,99.90
2023-04-15T18:01:57.432Z,99.90
2023-04-15T18:04:26.499Z,99.90
2023-04-15T18:06:57.318Z,99.90
2023-04-15T18:09:49.866Z,99.90
2023-04-15T18:12:23.498Z,99.90
2023-04-15T18:14:53.685Z,99.90
2023-04-15T18:17:21.269Z,99.90
2023-04-15T18:19:51.777Z,99.90
2023-04-15T18:22:21.897Z,99.90
2023-04-15T18:24:53.895Z,99.90
2023-04-15T18:27:23.599Z,99.90
2023-04-15T18:29:55.542Z,99.90
2023-04-15T18:32:32.012Z,99.90
2023-04-15T18:35:09.354Z,99.90
2023-04-15T18:37:36.133Z,99.90
2023-04-15T18:40:06.547Z,99.90
2023-04-15T18:42:35.860Z,99.90
2023-04-15T18:45:02.633Z,99.90
2023-04-15T18:47:31.831Z,99.90
2023-04-15T18:50:03.454Z,99.90
2023-04-15T18:52:35.620Z,99.90
2023-04-15T18:55:51.939Z,99.90
2023-04-15T18:58:18.804Z,99.90
2023-04-15T19:00:50.197Z,99.90
2023-04-15T19:03:17.091Z,99.90
2023-04-15T19:05:45.936Z,99.90
2023-04-15T19:08:12.688Z,99.90
2023-04-15T19:10:42.649Z,99.90
2023-04-15T19:13:12.249Z,99.90
2023-04-15T19:15:40.747Z,99.90
2023-04-15T19:18:09.895Z,99.90
2023-04-15T19:20:39.993Z,99.90
2023-04-15T19:23:09.054Z,99.90
2023-04-15T19:25:38.818Z,99.90
2023-04-15T19:28:10.789Z,99.90
2023-04-15T19:30:37.432Z,99.90
2023-04-15T19:33:04.235Z,99.90
2023-04-15T19:35:30.825Z,99.90
2023-04-15T19:37:59.564Z,99.90
2023-04-15T19:40:29.319Z,99.90
2023-04-15T19:42:57.777Z,99.90
2023-04-15T19:45:24.696Z,99.90
2023-04-15T19:47:54.590Z,99.90
2023-04-15T19:50:26.962Z,99.90
2023-04-15T19:52:57.378Z,99.90
2023-04-15T19:55:29.333Z,99.90
2023-04-15T19:57:56.227Z,99.90
2023-04-15T20:00:29.718Z,99.90
2023-04-15T20:02:57.501Z,99.90
2023-04-15T20:05:24.306Z,99.90
2023-04-15T20:08:00.406Z,99.90
2023-04-15T20:10:27.212Z,99.90
2023-04-15T20:12:54.992Z,99.90
2023-04-15T20:15:22.892Z,99.90
2023-04-15T20:17:55.963Z,99.90
2023-04-15T20:20:22.985Z,99.90
2023-04-15T20:22:52.269Z,99.90
2023-04-15T20:25:19.044Z,99.90
2023-04-15T20:27:45.720Z,99.90
2023-04-15T20:30:16.316Z,99.90
2023-04-15T20:32:43.473Z,99.90
2023-04-15T20:35:13.874Z,99.90
2023-04-15T20:37:46.145Z,99.90
2023-04-15T20:40:13.675Z,99.90
2023-04-15T20:42:43.638Z,99.90
2023-04-15T20:45:15.453Z,99.90
2023-04-15T20:47:42.235Z,99.90
2023-04-15T20:50:09.710Z,99.90
2023-04-15T20:52:36.307Z,99.90
2023-04-15T20:55:05.397Z,99.90
2023-04-15T20:57:33.468Z,99.90
2023-04-15T21:00:02.092Z,99.90
2023-04-15T21:02:32.051Z,99.90
2023-04-15T21:10:50.203Z,99.90
2023-04-15T21:13:16.959Z,99.90
2023-04-15T21:15:44.794Z,99.90
2023-04-15T21:18:12.641Z,99.90
2023-04-15T21:20:42.968Z,99.90
2023-04-15T21:23:12.498Z,99.90
2023-04-15T21:25:39.888Z,99.90
2023-04-15T21:28:10.510Z,99.90
2023-04-15T21:30:37.381Z,99.90
2023-04-15T21:33:06.338Z,99.90
2023-04-15T21:35:33.108Z,99.90
2023-04-15T21:38:08.770Z,99.90
2023-04-15T21:40:39.615Z,99.90
2023-04-15T21:43:07.321Z,99.90
2023-04-15T21:45:34.951Z,99.90
2023-04-15T21:48:08.201Z,99.90
2023-04-15T21:50:36.373Z,99.90
2023-04-15T21:53:04.010Z,99.90
2023-04-15T21:55:30.611Z,99.90
2023-04-15T21:57:58.533Z,99.90
2023-04-15T22:00:56.873Z,99.90
2023-04-15T22:03:28.554Z,99.90
2023-04-15T22:05:55.590Z,99.90
2023-04-15T22:08:23.620Z,99.90
2023-04-15T22:10:52.026Z,99.90
2023-04-15T22:13:20.125Z,99.90
2023-04-15T22:15:47.502Z,99.90
2023-04-15T22:18:17.131Z,99.90
2023-04-15T22:20:47.169Z,99.90
2023-04-15T22:23:19.578Z,99.90
2023-04-15T22:25:49.465Z,99.90
2023-04-15T22:28:19.353Z,99.90
2023-04-15T22:30:46.494Z,99.90
2023-04-15T22:33:23.000Z,99.90
2023-04-15T22:35:49.837Z,99.90
2023-04-15T22:38:30.128Z,99.90
2023-04-15T22:40:58.037Z,99.90
2023-04-15T22:43:50.341Z,99.90
2023-04-15T22:46:43.750Z,99.90
2023-04-15T22:49:10.553Z,99.90
2023-04-15T22:51:39.537Z,99.90
2023-04-15T22:54:07.692Z,99.90
2023-04-15T22:56:38.048Z,99.90
2023-04-15T22:59:05.766Z,99.90
2023-04-15T23:01:34.690Z,99.90
2023-04-15T23:04:08.910Z,99.90
2023-04-15T23:06:37.384Z,99.90
2023-04-15T23:09:05.834Z,99.90
2023-04-15T23:11:32.538Z,99.90
2023-04-15T23:14:02.277Z,99.90
2023-04-15T23:16:54.514Z,99.90
2023-04-15T23:19:21.728Z,99.90
2023-04-15T23:21:50.593Z,99.90
2023-04-15T23:24:21.532Z,99.90
2023-04-15T23:26:52.215Z,99.90
2023-04-15T23:29:21.809Z,99.90
2023-04-15T23:31:49.184Z,99.90
2023-04-15T23:34:21.643Z,99.90
2023-04-15T23:36:53.934Z,99.90
2023-04-15T23:40:15.686Z,99.90
2023-04-15T23:43:14.133Z,99.90
2023-04-15T23:45:43.882Z,99.90
2023-04-15T23:48:12.096Z,99.90
2023-04-15T23:50:38.895Z,99.90
2023-04-15T23:53:06.177Z,99.90
2023-04-15T23:55:34.676Z,99.90
2023-04-15T23:58:27.011Z,99.90
